sensor_id;sensor_type;location;lat;lon;timestamp;pressure;altitude;pressure_sealevel;temperature;humidity
75740;BME280;64357;51.344;6.550;2023-12-20T00:00:00;101074.47;;;7.95;100.00
75740;BME280;64357;51.344;6.550;2023-12-20T00:02:26;101077.19;;;7.96;100.00
75740;BME280;64357;51.344;6.550;2023-12-20T00:04:51;101073.56;;;7.94;100.00
75740;BME280;64357;51.344;6.550;2023-12-20T00:07:16;101077.81;;;7.87;100.00
75740;BME280;64357;51.344;6.550;2023-12-20T00:09:46;101067.28;;;7.84;100.00
75740;BME280;64357;51.344;6.550;2023-12-20T00:12:12;101072.72;;;7.80;100.00
75740;BME280;64357;51.344;6.550;2023-12-20T00:14:40;101078.53;;;7.79;100.00
75740;BME280;64357;51.344;6.550;2023-12-20T00:17:07;101081.50;;;7.74;100.00
75740;BME280;64357;51.344;6.550;2023-12-20T00:19:35;101070.97;;;7.71;100.00
75740;BME280;64357;51.344;6.550;2023-12-20T00:22:00;101096.88;;;7.83;100.00
75740;BME280;64357;51.344;6.550;2023-12-20T00:24:26;101088.22;;;7.74;100.00
75740;BME280;64357;51.344;6.550;2023-12-20T00:26:52;101097.41;;;7.88;100.00
75740;BME280;64357;51.344;6.550;2023-12-20T00:29:19;101091.94;;;7.92;100.00
75740;BME280;64357;51.344;6.550;2023-12-20T00:31:47;101083.31;;;7.75;100.00
75740;BME280;64357;51.344;6.550;2023-12-20T00:34:13;101091.25;;;7.86;100.00
75740;BME280;64357;51.344;6.550;2023-12-20T00:36:39;101080.72;;;7.83;100.00
75740;BME280;64357;51.344;6.550;2023-12-20T00:39:05;101085.38;;;7.94;100.00
75740;BME280;64357;51.344;6.550;2023-12-20T00:41:34;101095.59;;;7.87;100.00
75740;BME280;64357;51.344;6.550;2023-12-20T00:44:00;101104.88;;;7.86;100.00
75740;BME280;64357;51.344;6.550;2023-12-20T00:46:25;101109.25;;;7.80;100.00
75740;BME280;64357;51.344;6.550;2023-12-20T00:48:50;101106.84;;;7.89;100.00
75740;BME280;64357;51.344;6.550;2023-12-20T00:51:19;101109.06;;;7.86;100.00
75740;BME280;64357;51.344;6.550;2023-12-20T00:53:49;101112.69;;;7.88;100.00
75740;BME280;64357;51.344;6.550;2023-12-20T00:56:35;101099.47;;;7.76;100.00
75740;BME280;64357;51.344;6.550;2023-12-20T00:59:03;101075.22;;;7.57;100.00
75740;BME280;64357;51.344;6.550;2023-12-20T01:01:31;101120.19;;;7.72;100.00
75740;BME280;64357;51.344;6.550;2023-12-20T01:04:03;101108.31;;;7.80;100.00
75740;BME280;64357;51.344;6.550;2023-12-20T01:06:28;101106.75;;;7.66;100.00
75740;BME280;64357;51.344;6.550;2023-12-20T01:08:53;101121.13;;;7.65;100.00
75740;BME280;64357;51.344;6.550;2023-12-20T01:11:19;101108.03;;;7.69;100.00
75740;BME280;64357;51.344;6.550;2023-12-20T01:13:45;101114.56;;;7.74;100.00
75740;BME280;64357;51.344;6.550;2023-12-20T01:16:11;101120.34;;;7.73;100.00
75740;BME280;64357;51.344;6.550;2023-12-20T01:18:37;101117.09;;;7.67;100.00
75740;BME280;64357;51.344;6.550;2023-12-20T01:21:05;101113.31;;;7.64;100.00
75740;BME280;64357;51.344;6.550;2023-12-20T01:23:32;101125.84;;;7.55;100.00
75740;BME280;64357;51.344;6.550;2023-12-20T01:25:57;101115.22;;;7.36;100.00
75740;BME280;64357;51.344;6.550;2023-12-20T01:28:25;101114.09;;;7.41;100.00
75740;BME280;64357;51.344;6.550;2023-12-20T01:30:50;101112.09;;;7.46;100.00
75740;BME280;64357;51.344;6.550;2023-12-20T01:33:15;101113.56;;;7.37;100.00
75740;BME280;64357;51.344;6.550;2023-12-20T01:35:41;101123.19;;;7.39;100.00
75740;BME280;64357;51.344;6.550;2023-12-20T01:38:09;101125.41;;;7.29;100.00
75740;BME280;64357;51.344;6.550;2023-12-20T01:40:34;101128.84;;;7.22;100.00
75740;BME280;64357;51.344;6.550;2023-12-20T01:43:07;101124.84;;;7.25;100.00
75740;BME280;64357;51.344;6.550;2023-12-20T01:45:35;101123.22;;;7.25;100.00
75740;BME280;64357;51.344;6.550;2023-12-20T01:48:02;101118.91;;;7.10;100.00
75740;BME280;64357;51.344;6.550;2023-12-20T01:50:30;101124.16;;;7.11;100.00
75740;BME280;64357;51.344;6.550;2023-12-20T01:52:58;101123.78;;;7.08;100.00
75740;BME280;64357;51.344;6.550;2023-12-20T01:55:25;101120.91;;;6.98;100.00
75740;BME280;64357;51.344;6.550;2023-12-20T01:57:51;101140.13;;;6.96;100.00
75740;BME280;64357;51.344;6.550;2023-12-20T02:00:17;101147.19;;;6.91;100.00
75740;BME280;64357;51.344;6.550;2023-12-20T02:02:44;101139.22;;;6.88;100.00
75740;BME280;64357;51.344;6.550;2023-12-20T02:05:13;101122.38;;;6.82;100.00
75740;BME280;64357;51.344;6.550;2023-12-20T02:07:41;101133.78;;;6.85;100.00
75740;BME280;64357;51.344;6.550;2023-12-20T02:10:07;101128.34;;;6.82;100.00
75740;BME280;64357;51.344;6.550;2023-12-20T02:12:32;101118.38;;;6.70;100.00
75740;BME280;64357;51.344;6.550;2023-12-20T02:14:58;101117.81;;;6.72;100.00
75740;BME280;64357;51.344;6.550;2023-12-20T02:17:23;101132.69;;;6.69;100.00
75740;BME280;64357;51.344;6.550;2023-12-20T02:19:49;101136.66;;;6.67;100.00
75740;BME280;64357;51.344;6.550;2023-12-20T02:22:15;101127.75;;;6.56;100.00
75740;BME280;64357;51.344;6.550;2023-12-20T02:24:44;101130.69;;;6.52;100.00
75740;BME280;64357;51.344;6.550;2023-12-20T02:27:13;101140.44;;;6.49;100.00
75740;BME280;64357;51.344;6.550;2023-12-20T02:29:40;101135.38;;;6.42;100.00
75740;BME280;64357;51.344;6.550;2023-12-20T02:32:05;101146.44;;;6.43;100.00
75740;BME280;64357;51.344;6.550;2023-12-20T02:34:31;101150.44;;;6.40;100.00
75740;BME280;64357;51.344;6.550;2023-12-20T02:36:58;101143.38;;;6.45;100.00
75740;BME280;64357;51.344;6.550;2023-12-20T02:39:24;101144.06;;;6.44;100.00
75740;BME280;64357;51.344;6.550;2023-12-20T02:41:51;101140.28;;;6.55;100.00
75740;BME280;64357;51.344;6.550;2023-12-20T02:44:19;101139.72;;;6.43;100.00
75740;BME280;64357;51.344;6.550;2023-12-20T02:46:44;101138.63;;;6.34;100.00
75740;BME280;64357;51.344;6.550;2023-12-20T02:49:10;101138.63;;;6.41;100.00
75740;BME280;64357;51.344;6.550;2023-12-20T02:51:40;101139.16;;;6.38;100.00
75740;BME280;64357;51.344;6.550;2023-12-20T02:54:05;101138.97;;;6.37;100.00
75740;BME280;64357;51.344;6.550;2023-12-20T02:56:32;101143.34;;;6.38;100.00
75740;BME280;64357;51.344;6.550;2023-12-20T02:58:57;101135.16;;;6.26;100.00
75740;BME280;64357;51.344;6.550;2023-12-20T03:01:26;101151.66;;;6.30;100.00
75740;BME280;64357;51.344;6.550;2023-12-20T03:03:53;101151.28;;;6.27;100.00
75740;BME280;64357;51.344;6.550;2023-12-20T03:06:19;101142.59;;;6.32;100.00
75740;BME280;64357;51.344;6.550;2023-12-20T03:08:46;101145.69;;;6.36;100.00
75740;BME280;64357;51.344;6.550;2023-12-20T03:11:14;101141.69;;;6.31;100.00
75740;BME280;64357;51.344;6.550;2023-12-20T03:13:42;101133.19;;;6.31;100.00
75740;BME280;64357;51.344;6.550;2023-12-20T03:16:08;101127.75;;;6.28;100.00
75740;BME280;64357;51.344;6.550;2023-12-20T03:18:34;101134.47;;;6.34;100.00
75740;BME280;64357;51.344;6.550;2023-12-20T03:20:59;101134.97;;;6.32;100.00
75740;BME280;64357;51.344;6.550;2023-12-20T03:23:27;101128.81;;;6.30;100.00
75740;BME280;64357;51.344;6.550;2023-12-20T03:25:52;101133.91;;;6.37;100.00
75740;BME280;64357;51.344;6.550;2023-12-20T03:28:20;101108.88;;;6.26;100.00
75740;BME280;64357;51.344;6.550;2023-12-20T03:30:46;101123.94;;;6.38;100.00
75740;BME280;64357;51.344;6.550;2023-12-20T03:33:11;101113.63;;;6.37;100.00
75740;BME280;64357;51.344;6.550;2023-12-20T03:35:36;101112.72;;;6.36;100.00
75740;BME280;64357;51.344;6.550;2023-12-20T03:38:04;101113.59;;;6.23;100.00
75740;BME280;64357;51.344;6.550;2023-12-20T03:40:29;101119.97;;;6.40;100.00
75740;BME280;64357;51.344;6.550;2023-12-20T03:42:55;101125.56;;;6.38;100.00
75740;BME280;64357;51.344;6.550;2023-12-20T03:45:20;101131.03;;;6.55;100.00
75740;BME280;64357;51.344;6.550;2023-12-20T03:47:45;101127.03;;;6.36;100.00
75740;BME280;64357;51.344;6.550;2023-12-20T03:50:11;101120.31;;;6.44;100.00
75740;BME280;64357;51.344;6.550;2023-12-20T03:52:51;101127.22;;;6.45;100.00
75740;BME280;64357;51.344;6.550;2023-12-20T03:55:17;101111.97;;;6.30;100.00
75740;BME280;64357;51.344;6.550;2023-12-20T03:57:43;101122.84;;;6.29;100.00
75740;BME280;64357;51.344;6.550;2023-12-20T04:00:08;101114.13;;;6.27;100.00
75740;BME280;64357;51.344;6.550;2023-12-20T04:02:41;101115.06;;;6.28;100.00
75740;BME280;64357;51.344;6.550;2023-12-20T04:05:07;101110.00;;;6.28;100.00
75740;BME280;64357;51.344;6.550;2023-12-20T04:07:33;101107.78;;;6.17;100.00
75740;BME280;64357;51.344;6.550;2023-12-20T04:09:59;101110.66;;;6.05;100.00
75740;BME280;64357;51.344;6.550;2023-12-20T04:12:25;101116.66;;;6.13;100.00
75740;BME280;64357;51.344;6.550;2023-12-20T04:14:51;101125.91;;;6.20;100.00
75740;BME280;64357;51.344;6.550;2023-12-20T04:17:22;101109.75;;;6.12;100.00
75740;BME280;64357;51.344;6.550;2023-12-20T04:19:51;101115.56;;;6.18;100.00
75740;BME280;64357;51.344;6.550;2023-12-20T04:22:19;101116.47;;;6.19;100.00
75740;BME280;64357;51.344;6.550;2023-12-20T04:24:44;101111.06;;;6.30;100.00
75740;BME280;64357;51.344;6.550;2023-12-20T04:27:10;101113.59;;;6.23;100.00
75740;BME280;64357;51.344;6.550;2023-12-20T04:29:38;101113.38;;;6.14;100.00
75740;BME280;64357;51.344;6.550;2023-12-20T04:32:04;101125.31;;;6.08;100.00
75740;BME280;64357;51.344;6.550;2023-12-20T04:34:29;101114.59;;;5.96;100.00
75740;BME280;64357;51.344;6.550;2023-12-20T04:36:55;101123.09;;;5.97;100.00
75740;BME280;64357;51.344;6.550;2023-12-20T04:39:20;101128.19;;;5.97;100.00
75740;BME280;64357;51.344;6.550;2023-12-20T04:41:46;101133.41;;;5.91;100.00
75740;BME280;64357;51.344;6.550;2023-12-20T04:44:13;101125.47;;;5.95;100.00
75740;BME280;64357;51.344;6.550;2023-12-20T04:46:38;101115.09;;;5.86;100.00
75740;BME280;64357;51.344;6.550;2023-12-20T04:49:04;101124.16;;;5.92;100.00
75740;BME280;64357;51.344;6.550;2023-12-20T04:51:29;101134.00;;;6.03;100.00
75740;BME280;64357;51.344;6.550;2023-12-20T04:53:55;101140.19;;;6.12;100.00
75740;BME280;64357;51.344;6.550;2023-12-20T04:56:22;101133.84;;;6.08;100.00
75740;BME280;64357;51.344;6.550;2023-12-20T04:58:48;101117.53;;;5.99;100.00
75740;BME280;64357;51.344;6.550;2023-12-20T05:01:17;101121.69;;;5.99;100.00
75740;BME280;64357;51.344;6.550;2023-12-20T05:03:42;101113.81;;;5.90;100.00
75740;BME280;64357;51.344;6.550;2023-12-20T05:06:07;101124.59;;;6.02;100.00
75740;BME280;64357;51.344;6.550;2023-12-20T05:08:33;101120.41;;;6.02;100.00
75740;BME280;64357;51.344;6.550;2023-12-20T05:10:58;101126.94;;;6.07;100.00
75740;BME280;64357;51.344;6.550;2023-12-20T05:13:26;101124.81;;;6.10;100.00
75740;BME280;64357;51.344;6.550;2023-12-20T05:15:51;101107.06;;;6.10;100.00
75740;BME280;64357;51.344;6.550;2023-12-20T05:18:17;101135.88;;;6.18;100.00
75740;BME280;64357;51.344;6.550;2023-12-20T05:20:42;101121.00;;;6.14;100.00
75740;BME280;64357;51.344;6.550;2023-12-20T05:23:07;101111.59;;;6.20;100.00
75740;BME280;64357;51.344;6.550;2023-12-20T05:25:39;101110.50;;;6.18;100.00
75740;BME280;64357;51.344;6.550;2023-12-20T05:28:04;101111.59;;;6.27;100.00
75740;BME280;64357;51.344;6.550;2023-12-20T05:30:34;101108.72;;;6.31;100.00
75740;BME280;64357;51.344;6.550;2023-12-20T05:33:02;101109.59;;;6.25;100.00
75740;BME280;64357;51.344;6.550;2023-12-20T05:35:27;101117.06;;;6.30;100.00
75740;BME280;64357;51.344;6.550;2023-12-20T05:37:52;101115.81;;;6.34;100.00
75740;BME280;64357;51.344;6.550;2023-12-20T05:40:18;101106.72;;;6.22;100.00
75740;BME280;64357;51.344;6.550;2023-12-20T05:42:45;101083.91;;;6.29;100.00
75740;BME280;64357;51.344;6.550;2023-12-20T05:45:11;101106.91;;;6.30;100.00
75740;BME280;64357;51.344;6.550;2023-12-20T05:47:39;101106.38;;;6.40;100.00
75740;BME280;64357;51.344;6.550;2023-12-20T05:50:07;101110.56;;;6.39;100.00
75740;BME280;64357;51.344;6.550;2023-12-20T05:52:33;101106.56;;;6.41;100.00
75740;BME280;64357;51.344;6.550;2023-12-20T05:54:58;101103.63;;;6.38;100.00
75740;BME280;64357;51.344;6.550;2023-12-20T05:57:27;101106.00;;;6.44;100.00
75740;BME280;64357;51.344;6.550;2023-12-20T05:59:54;101118.34;;;6.41;100.00
75740;BME280;64357;51.344;6.550;2023-12-20T06:02:22;101106.56;;;6.34;100.00
75740;BME280;64357;51.344;6.550;2023-12-20T06:04:47;101098.78;;;6.54;100.00
75740;BME280;64357;51.344;6.550;2023-12-20T06:07:15;101107.84;;;6.52;100.00
75740;BME280;64357;51.344;6.550;2023-12-20T06:09:43;101096.94;;;6.32;100.00
75740;BME280;64357;51.344;6.550;2023-12-20T06:12:08;101083.38;;;6.46;100.00
75740;BME280;64357;51.344;6.550;2023-12-20T06:14:34;101091.34;;;6.49;100.00
75740;BME280;64357;51.344;6.550;2023-12-20T06:17:00;101098.94;;;6.56;100.00
75740;BME280;64357;51.344;6.550;2023-12-20T06:19:26;101109.81;;;6.55;100.00
75740;BME280;64357;51.344;6.550;2023-12-20T06:21:51;101116.53;;;6.54;100.00
75740;BME280;64357;51.344;6.550;2023-12-20T06:24:19;101122.72;;;6.63;100.00
75740;BME280;64357;51.344;6.550;2023-12-20T06:26:47;101116.00;;;6.78;100.00
75740;BME280;64357;51.344;6.550;2023-12-20T06:29:12;101115.28;;;6.93;100.00
75740;BME280;64357;51.344;6.550;2023-12-20T06:31:37;101111.47;;;7.04;100.00
75740;BME280;64357;51.344;6.550;2023-12-20T06:34:03;101106.00;;;7.01;100.00
75740;BME280;64357;51.344;6.550;2023-12-20T06:36:28;101102.75;;;7.02;100.00
75740;BME280;64357;51.344;6.550;2023-12-20T06:38:54;101122.69;;;7.13;100.00
75740;BME280;64357;51.344;6.550;2023-12-20T06:41:23;101123.81;;;6.87;100.00
75740;BME280;64357;51.344;6.550;2023-12-20T06:43:50;101099.50;;;6.89;100.00
75740;BME280;64357;51.344;6.550;2023-12-20T06:46:15;101100.75;;;6.78;100.00
75740;BME280;64357;51.344;6.550;2023-12-20T06:48:43;101117.28;;;6.89;100.00
75740;BME280;64357;51.344;6.550;2023-12-20T06:51:12;101113.84;;;6.81;100.00
75740;BME280;64357;51.344;6.550;2023-12-20T06:53:38;101114.94;;;6.76;100.00
75740;BME280;64357;51.344;6.550;2023-12-20T06:56:03;101092.63;;;6.81;100.00
75740;BME280;64357;51.344;6.550;2023-12-20T06:58:28;101098.41;;;6.87;100.00
75740;BME280;64357;51.344;6.550;2023-12-20T07:00:56;101090.97;;;6.95;100.00
75740;BME280;64357;51.344;6.550;2023-12-20T07:03:22;101093.88;;;6.99;100.00
75740;BME280;64357;51.344;6.550;2023-12-20T07:05:47;101102.38;;;6.85;100.00
75740;BME280;64357;51.344;6.550;2023-12-20T07:08:13;101099.31;;;6.94;100.00
75740;BME280;64357;51.344;6.550;2023-12-20T07:10:39;101091.72;;;6.87;100.00
75740;BME280;64357;51.344;6.550;2023-12-20T07:13:07;101087.38;;;6.86;100.00
75740;BME280;64357;51.344;6.550;2023-12-20T07:15:35;101104.22;;;7.00;100.00
75740;BME280;64357;51.344;6.550;2023-12-20T07:18:02;101106.19;;;6.95;100.00
75740;BME280;64357;51.344;6.550;2023-12-20T07:20:30;101098.41;;;7.01;100.00
75740;BME280;64357;51.344;6.550;2023-12-20T07:22:55;101091.88;;;6.96;100.00
75740;BME280;64357;51.344;6.550;2023-12-20T07:25:21;101099.47;;;7.03;100.00
75740;BME280;64357;51.344;6.550;2023-12-20T07:27:46;101106.91;;;7.02;100.00
75740;BME280;64357;51.344;6.550;2023-12-20T07:30:14;101095.50;;;6.98;100.00
75740;BME280;64357;51.344;6.550;2023-12-20T07:32:39;101109.44;;;7.09;100.00
75740;BME280;64357;51.344;6.550;2023-12-20T07:35:05;101118.34;;;7.05;100.00
75740;BME280;64357;51.344;6.550;2023-12-20T07:37:30;101105.47;;;6.97;100.00
75740;BME280;64357;51.344;6.550;2023-12-20T07:39:58;101095.31;;;7.04;100.00
75740;BME280;64357;51.344;6.550;2023-12-20T07:42:28;101112.88;;;7.09;100.00
75740;BME280;64357;51.344;6.550;2023-12-20T07:44:56;101112.38;;;7.05;100.00
75740;BME280;64357;51.344;6.550;2023-12-20T07:47:21;101102.22;;;7.05;100.00
75740;BME280;64357;51.344;6.550;2023-12-20T07:49:49;101092.97;;;6.98;100.00
75740;BME280;64357;51.344;6.550;2023-12-20T07:52:17;101111.66;;;6.99;100.00
75740;BME280;64357;51.344;6.550;2023-12-20T07:54:42;101112.72;;;7.01;100.00
75740;BME280;64357;51.344;6.550;2023-12-20T07:57:07;101102.03;;;6.96;100.00
75740;BME280;64357;51.344;6.550;2023-12-20T07:59:33;101102.00;;;7.03;100.00
75740;BME280;64357;51.344;6.550;2023-12-20T08:01:58;101110.00;;;7.06;100.00
75740;BME280;64357;51.344;6.550;2023-12-20T08:04:23;101092.97;;;6.98;100.00
75740;BME280;64357;51.344;6.550;2023-12-20T08:06:50;101097.50;;;7.01;100.00
75740;BME280;64357;51.344;6.550;2023-12-20T08:09:19;101097.13;;;6.90;100.00
75740;BME280;64357;51.344;6.550;2023-12-20T08:11:48;101108.72;;;7.03;100.00
75740;BME280;64357;51.344;6.550;2023-12-20T08:14:13;101120.53;;;6.95;100.00
75740;BME280;64357;51.344;6.550;2023-12-20T08:16:39;101115.44;;;6.95;100.00
75740;BME280;64357;51.344;6.550;2023-12-20T08:19:04;101105.84;;;6.92;100.00
75740;BME280;64357;51.344;6.550;2023-12-20T08:21:29;101109.09;;;6.91;100.00
75740;BME280;64357;51.344;6.550;2023-12-20T08:23:55;101102.59;;;6.86;100.00
75740;BME280;64357;51.344;6.550;2023-12-20T08:26:25;101103.13;;;6.84;100.00
75740;BME280;64357;51.344;6.550;2023-12-20T08:28:51;101098.97;;;6.70;100.00
75740;BME280;64357;51.344;6.550;2023-12-20T08:31:17;101124.91;;;6.75;100.00
75740;BME280;64357;51.344;6.550;2023-12-20T08:33:47;101126.72;;;6.76;100.00
75740;BME280;64357;51.344;6.550;2023-12-20T08:36:13;101140.13;;;6.82;100.00
75740;BME280;64357;51.344;6.550;2023-12-20T08:38:38;101139.75;;;6.72;100.00
75740;BME280;64357;51.344;6.550;2023-12-20T08:41:04;101143.19;;;6.65;100.00
75740;BME280;64357;51.344;6.550;2023-12-20T08:43:34;101125.09;;;6.69;100.00
75740;BME280;64357;51.344;6.550;2023-12-20T08:45:59;101133.22;;;6.74;100.00
75740;BME280;64357;51.344;6.550;2023-12-20T08:48:25;101116.00;;;6.71;100.00
75740;BME280;64357;51.344;6.550;2023-12-20T08:50:50;101111.28;;;6.67;100.00
75740;BME280;64357;51.344;6.550;2023-12-20T08:53:18;101114.19;;;6.70;100.00
75740;BME280;64357;51.344;6.550;2023-12-20T08:55:45;101126.53;;;6.81;100.00
75740;BME280;64357;51.344;6.550;2023-12-20T08:58:10;101126.88;;;6.84;100.00
75740;BME280;64357;51.344;6.550;2023-12-20T09:00:36;101109.84;;;6.83;100.00
75740;BME280;64357;51.344;6.550;2023-12-20T09:03:03;101108.75;;;6.88;100.00
75740;BME280;64357;51.344;6.550;2023-12-20T09:05:31;101106.03;;;6.87;100.00
75740;BME280;64357;51.344;6.550;2023-12-20T09:07:59;101104.00;;;6.91;100.00
75740;BME280;64357;51.344;6.550;2023-12-20T09:10:25;101090.59;;;6.85;100.00
75740;BME280;64357;51.344;6.550;2023-12-20T09:13:00;101089.19;;;6.80;100.00
75740;BME280;64357;51.344;6.550;2023-12-20T09:15:26;101104.59;;;6.82;100.00
75740;BME280;64357;51.344;6.550;2023-12-20T09:17:53;101103.81;;;6.97;100.00
75740;BME280;64357;51.344;6.550;2023-12-20T09:20:19;101096.59;;;6.93;100.00
75740;BME280;64357;51.344;6.550;2023-12-20T09:22:44;101100.94;;;6.94;100.00
75740;BME280;64357;51.344;6.550;2023-12-20T09:25:10;101095.13;;;6.95;100.00
75740;BME280;64357;51.344;6.550;2023-12-20T09:27:38;101079.34;;;6.90;100.00
75740;BME280;64357;51.344;6.550;2023-12-20T09:30:04;101092.44;;;6.93;100.00
75740;BME280;64357;51.344;6.550;2023-12-20T09:32:31;101075.03;;;6.82;100.00
75740;BME280;64357;51.344;6.550;2023-12-20T09:34:56;101085.53;;;6.85;100.00
75740;BME280;64357;51.344;6.550;2023-12-20T09:37:21;101102.03;;;6.96;100.00
75740;BME280;64357;51.344;6.550;2023-12-20T09:39:49;101096.97;;;6.89;100.00
75740;BME280;64357;51.344;6.550;2023-12-20T09:42:19;101105.66;;;6.98;100.00
75740;BME280;64357;51.344;6.550;2023-12-20T09:44:47;101109.47;;;7.02;100.00
75740;BME280;64357;51.344;6.550;2023-12-20T09:47:13;101112.34;;;7.19;100.00
75740;BME280;64357;51.344;6.550;2023-12-20T09:49:41;101102.53;;;7.22;100.00
75740;BME280;64357;51.344;6.550;2023-12-20T09:52:07;101095.09;;;7.09;100.00
75740;BME280;64357;51.344;6.550;2023-12-20T09:54:34;101105.81;;;7.14;100.00
75740;BME280;64357;51.344;6.550;2023-12-20T09:57:00;101107.09;;;7.17;100.00
75740;BME280;64357;51.344;6.550;2023-12-20T09:59:25;101104.53;;;7.17;100.00
75740;BME280;64357;51.344;6.550;2023-12-20T10:01:51;101100.75;;;7.07;100.00
75740;BME280;64357;51.344;6.550;2023-12-20T10:04:20;101102.94;;;7.11;100.00
75740;BME280;64357;51.344;6.550;2023-12-20T10:06:48;101107.28;;;7.05;100.00
75740;BME280;64357;51.344;6.550;2023-12-20T10:09:13;101104.53;;;7.03;100.00
75740;BME280;64357;51.344;6.550;2023-12-20T10:11:41;101089.31;;;6.96;100.00
75740;BME280;64357;51.344;6.550;2023-12-20T10:14:07;101089.13;;;7.02;100.00
75740;BME280;64357;51.344;6.550;2023-12-20T10:16:33;101104.34;;;7.23;100.00
75740;BME280;64357;51.344;6.550;2023-12-20T10:18:59;101082.03;;;7.20;100.00
75740;BME280;64357;51.344;6.550;2023-12-20T10:21:26;101092.56;;;7.24;100.00
75740;BME280;64357;51.344;6.550;2023-12-20T10:23:55;101083.63;;;7.34;100.00
75740;BME280;64357;51.344;6.550;2023-12-20T10:26:21;101089.25;;;7.32;100.00
75740;BME280;64357;51.344;6.550;2023-12-20T10:28:52;101081.63;;;7.39;100.00
75740;BME280;64357;51.344;6.550;2023-12-20T10:33:52;101072.91;;;7.37;100.00
75740;BME280;64357;51.344;6.550;2023-12-20T10:36:17;101064.34;;;7.51;100.00
75740;BME280;64357;51.344;6.550;2023-12-20T10:38:44;101065.66;;;7.40;100.00
75740;BME280;64357;51.344;6.550;2023-12-20T10:41:12;101062.72;;;7.44;100.00
75740;BME280;64357;51.344;6.550;2023-12-20T10:43:39;101076.53;;;7.46;100.00
75740;BME280;64357;51.344;6.550;2023-12-20T10:46:05;101072.91;;;7.37;100.00
75740;BME280;64357;51.344;6.550;2023-12-20T10:48:34;101059.47;;;7.38;100.00
75740;BME280;64357;51.344;6.550;2023-12-20T10:51:01;101061.84;;;7.36;100.00
75740;BME280;64357;51.344;6.550;2023-12-20T10:53:32;101056.22;;;7.39;100.00
75740;BME280;64357;51.344;6.550;2023-12-20T10:56:00;101067.22;;;7.54;100.00
75740;BME280;64357;51.344;6.550;2023-12-20T10:58:29;101068.88;;;7.53;100.00
75740;BME280;64357;51.344;6.550;2023-12-20T11:01:00;101077.06;;;7.43;100.00
75740;BME280;64357;51.344;6.550;2023-12-20T11:03:27;101072.31;;;7.54;100.00
75740;BME280;64357;51.344;6.550;2023-12-20T11:06:08;101065.28;;;7.37;100.00
75740;BME280;64357;51.344;6.550;2023-12-20T11:08:51;101073.44;;;7.41;100.00
75740;BME280;64357;51.344;6.550;2023-12-20T11:12:21;101065.31;;;7.30;100.00
75740;BME280;64357;51.344;6.550;2023-12-20T11:14:34;101058.75;;;7.39;100.00
75740;BME280;64357;51.344;6.550;2023-12-20T11:17:10;101051.34;;;7.33;100.00
75740;BME280;64357;51.344;6.550;2023-12-20T11:22:29;101055.84;;;7.36;100.00
75740;BME280;64357;51.344;6.550;2023-12-20T11:25:04;101041.88;;;7.32;100.00
75740;BME280;64357;51.344;6.550;2023-12-20T11:27:34;101043.50;;;7.32;100.00
75740;BME280;64357;51.344;6.550;2023-12-20T11:30:03;101042.88;;;7.56;100.00
75740;BME280;64357;51.344;6.550;2023-12-20T11:32:30;101040.75;;;7.44;100.00
75740;BME280;64357;51.344;6.550;2023-12-20T11:34:57;101032.97;;;7.36;100.00
75740;BME280;64357;51.344;6.550;2023-12-20T11:37:29;101036.56;;;7.52;100.00
75740;BME280;64357;51.344;6.550;2023-12-20T11:40:00;101037.38;;;7.67;100.00
75740;BME280;64357;51.344;6.550;2023-12-20T11:42:27;101051.03;;;7.60;100.00
75740;BME280;64357;51.344;6.550;2023-12-20T11:44:53;101031.78;;;7.62;100.00
75740;BME280;64357;51.344;6.550;2023-12-20T11:47:18;101046.28;;;7.70;100.00
75740;BME280;64357;51.344;6.550;2023-12-20T11:49:47;101039.16;;;7.75;100.00
75740;BME280;64357;51.344;6.550;2023-12-20T11:52:13;101047.94;;;7.63;100.00
75740;BME280;64357;51.344;6.550;2023-12-20T11:54:39;101028.69;;;7.65;100.00
75740;BME280;64357;51.344;6.550;2023-12-20T11:57:04;101046.69;;;7.59;100.00
75740;BME280;64357;51.344;6.550;2023-12-20T11:59:32;101030.53;;;7.59;100.00
75740;BME280;64357;51.344;6.550;2023-12-20T12:01:59;101010.19;;;7.59;100.00
75740;BME280;64357;51.344;6.550;2023-12-20T12:04:30;101018.16;;;7.62;100.00
75740;BME280;64357;51.344;6.550;2023-12-20T12:06:56;101018.56;;;7.58;100.00
75740;BME280;64357;51.344;6.550;2023-12-20T12:09:23;101016.78;;;7.42;100.00
75740;BME280;64357;51.344;6.550;2023-12-20T12:11:52;101023.88;;;7.45;100.00
75740;BME280;64357;51.344;6.550;2023-12-20T12:14:26;101026.03;;;7.49;100.00
75740;BME280;64357;51.344;6.550;2023-12-20T12:16:51;100996.78;;;7.53;100.00
75740;BME280;64357;51.344;6.550;2023-12-20T12:19:22;101010.34;;;7.60;100.00
75740;BME280;64357;51.344;6.550;2023-12-20T12:21:49;101000.75;;;7.58;100.00
75740;BME280;64357;51.344;6.550;2023-12-20T12:24:14;101014.63;;;7.45;100.00
75740;BME280;64357;51.344;6.550;2023-12-20T12:26:39;101018.59;;;7.51;100.00
75740;BME280;64357;51.344;6.550;2023-12-20T12:29:08;101009.13;;;7.57;100.00
75740;BME280;64357;51.344;6.550;2023-12-20T12:31:37;101008.81;;;7.46;100.00
75740;BME280;64357;51.344;6.550;2023-12-20T12:34:02;101000.47;;;7.40;100.00
75740;BME280;64357;51.344;6.550;2023-12-20T12:36:30;101019.72;;;7.38;100.00
75740;BME280;64357;51.344;6.550;2023-12-20T12:38:57;101004.50;;;7.31;100.00
75740;BME280;64357;51.344;6.550;2023-12-20T12:41:24;101002.13;;;7.33;100.00
75740;BME280;64357;51.344;6.550;2023-12-20T12:43:52;100997.47;;;7.21;100.00
75740;BME280;64357;51.344;6.550;2023-12-20T12:46:17;100983.13;;;7.15;100.00
75740;BME280;64357;51.344;6.550;2023-12-20T12:48:43;100992.72;;;7.25;100.00
75740;BME280;64357;51.344;6.550;2023-12-20T12:51:08;100990.88;;;7.31;100.00
75740;BME280;64357;51.344;6.550;2023-12-20T12:53:38;100992.16;;;7.34;100.00